createdAt,value
2022-10-05T00:01:34.599Z,98717.53
2022-10-05T00:04:24.398Z,98725.38
2022-10-05T00:07:04.295Z,98727.00
2022-10-05T00:09:33.001Z,98720.56
2022-10-05T00:12:00.234Z,98729.69
2022-10-05T00:14:32.472Z,98723.56
2022-10-05T00:17:01.117Z,98729.53
2022-10-05T00:19:38.089Z,98730.28
2022-10-05T00:22:33.087Z,98734.19
2022-10-05T00:25:03.590Z,98737.00
2022-10-05T00:27:37.526Z,98734.97
2022-10-05T00:30:19.045Z,98726.13
2022-10-05T00:32:47.059Z,98728.06
2022-10-05T00:35:16.896Z,98726.59
2022-10-05T00:37:45.037Z,98721.41
2022-10-05T00:40:41.474Z,98714.53
2022-10-05T00:43:21.276Z,98718.88
2022-10-05T00:46:08.687Z,98717.72
2022-10-05T00:48:49.638Z,98716.09
2022-10-05T00:51:30.207Z,98731.34
2022-10-05T00:54:34.838Z,98716.91
2022-10-05T00:57:45.708Z,98718.63
2022-10-05T01:00:22.548Z,98721.66
2022-10-05T01:03:36.988Z,98713.88
2022-10-05T01:06:23.702Z,98712.31
2022-10-05T01:09:14.164Z,98709.53
2022-10-05T01:12:09.674Z,98715.34
2022-10-05T01:14:56.146Z,98720.56
2022-10-05T01:17:41.869Z,98713.16
2022-10-05T01:20:41.842Z,98716.69
2022-10-05T01:23:47.835Z,98709.84
2022-10-05T01:26:51.622Z,98714.50
2022-10-05T01:29:26.286Z,98707.75
2022-10-05T01:32:13.869Z,98711.78
2022-10-05T01:34:57.628Z,98713.13
2022-10-05T01:37:53.857Z,98705.59
2022-10-05T01:40:50.909Z,98711.34
2022-10-05T01:43:47.639Z,98710.19
2022-10-05T01:46:37.097Z,98711.06
2022-10-05T01:49:59.355Z,98715.94
2022-10-05T01:52:53.507Z,98712.59
2022-10-05T01:55:39.323Z,98708.56
2022-10-05T01:58:46.601Z,98705.56
2022-10-05T02:01:54.160Z,98703.06
2022-10-05T02:05:03.467Z,98702.28
2022-10-05T02:07:45.761Z,98696.94
2022-10-05T02:10:15.610Z,98704.34
2022-10-05T02:12:45.116Z,98715.59
2022-10-05T02:15:22.614Z,98706.69
2022-10-05T02:17:57.602Z,98706.13
2022-10-05T02:20:29.201Z,98695.47
2022-10-05T02:23:05.131Z,98699.31
2022-10-05T02:25:38.952Z,98693.84
2022-10-05T02:28:36.910Z,98693.84
2022-10-05T02:31:13.651Z,98688.47
2022-10-05T02:33:40.992Z,98681.97
2022-10-05T02:36:36.752Z,98663.56
2022-10-05T02:39:11.289Z,98659.38
2022-10-05T02:42:02.178Z,98660.59
2022-10-05T02:44:54.427Z,98660.53
2022-10-05T02:47:58.426Z,98670.00
2022-10-05T02:50:52.599Z,98670.94
2022-10-05T02:53:43.084Z,98678.25
2022-10-05T02:56:25.414Z,98681.88
2022-10-05T02:59:39.108Z,98683.16
2022-10-05T03:02:43.276Z,98689.19
2022-10-05T03:05:25.959Z,98697.78
2022-10-05T03:07:58.888Z,98699.34
2022-10-05T03:10:40.830Z,98711.09
2022-10-05T03:13:45.067Z,98698.34
2022-10-05T03:16:54.435Z,98697.97
2022-10-05T03:19:46.783Z,98695.28
2022-10-05T03:22:25.353Z,98697.16
2022-10-05T03:25:40.721Z,98690.59
2022-10-05T03:28:27.215Z,98682.38
2022-10-05T03:31:06.719Z,98676.84
2022-10-05T03:34:07.810Z,98681.75
2022-10-05T03:37:08.984Z,98668.72
2022-10-05T03:39:49.212Z,98669.09
2022-10-05T03:43:04.292Z,98663.50
2022-10-05T03:45:53.661Z,98647.41
2022-10-05T03:48:38.577Z,98647.41
2022-10-05T03:51:35.244Z,98643.75
2022-10-05T03:54:26.213Z,98639.38
2022-10-05T03:57:06.749Z,98645.00
2022-10-05T03:59:45.271Z,98641.78
2022-10-05T04:02:40.742Z,98633.06
2022-10-05T04:05:10.726Z,98635.13
2022-10-05T04:07:50.219Z,98629.66
2022-10-05T04:10:42.198Z,98634.06
2022-10-05T04:13:17.657Z,98635.91
2022-10-05T04:15:57.838Z,98641.25
2022-10-05T04:18:31.095Z,98638.41
2022-10-05T04:21:09.284Z,98634.88
2022-10-05T04:23:53.587Z,98632.25
2022-10-05T04:26:35.833Z,98641.25
2022-10-05T04:29:37.277Z,98632.84
2022-10-05T04:32:33.500Z,98625.91
2022-10-05T04:35:53.264Z,98631.06
2022-10-05T04:38:29.374Z,98625.16
2022-10-05T04:41:25.207Z,98630.31
2022-10-05T04:43:56.286Z,98635.91
2022-10-05T04:46:48.278Z,98630.22
2022-10-05T04:50:24.755Z,98642.91
2022-10-05T04:53:46.818Z,98644.84
2022-10-05T04:56:24.222Z,98642.69
2022-10-05T04:59:25.394Z,98648.97
2022-10-05T05:02:17.409Z,98655.34
2022-10-05T05:05:58.604Z,98653.50
2022-10-05T05:09:15.312Z,98663.13
2022-10-05T05:12:18.970Z,98666.41
2022-10-05T05:15:07.256Z,98670.94
2022-10-05T05:18:15.246Z,98670.97
2022-10-05T05:20:48.470Z,98680.66
2022-10-05T05:23:41.244Z,98676.50
2022-10-05T05:26:43.489Z,98671.38
2022-10-05T05:29:49.585Z,98672.41
2022-10-05T05:32:40.340Z,98678.78
2022-10-05T05:35:31.674Z,98691.09
2022-10-05T05:38:07.831Z,98686.81
2022-10-05T05:40:47.577Z,98685.78
2022-10-05T05:43:45.360Z,98691.94
2022-10-05T05:47:02.490Z,98687.00
2022-10-05T05:50:07.029Z,98687.41
2022-10-05T05:52:43.471Z,98693.81
2022-10-05T05:55:29.737Z,98699.56
2022-10-05T05:58:33.112Z,98695.94
2022-10-05T06:01:04.717Z,98694.56
2022-10-05T06:03:45.828Z,98693.34
2022-10-05T06:06:16.854Z,98700.91
2022-10-05T06:08:52.429Z,98712.41
2022-10-05T06:11:58.570Z,98703.81
2022-10-05T06:14:37.592Z,98722.09
2022-10-05T06:17:16.928Z,98722.13
2022-10-05T06:19:46.486Z,98728.00
2022-10-05T06:22:34.614Z,98727.25
2022-10-05T06:25:35.306Z,98725.56
2022-10-05T06:28:16.284Z,98737.06
2022-10-05T06:31:24.863Z,98729.63
2022-10-05T06:34:32.154Z,98744.19
2022-10-05T06:37:04.983Z,98741.94
2022-10-05T06:40:21.903Z,98743.19
2022-10-05T06:42:54.770Z,98749.97
2022-10-05T06:46:00.792Z,98753.50
2022-10-05T06:49:32.551Z,98751.03
2022-10-05T06:52:45.068Z,98755.88
2022-10-05T06:55:24.189Z,98753.41
2022-10-05T06:58:16.366Z,98758.78
2022-10-05T07:01:04.360Z,98753.44
2022-10-05T07:04:08.553Z,98753.06
2022-10-05T07:06:58.953Z,98764.63
2022-10-05T07:09:57.206Z,98766.41
2022-10-05T07:13:11.686Z,98761.41
2022-10-05T07:16:17.250Z,98754.66
2022-10-05T07:19:22.776Z,98755.41
2022-10-05T07:22:50.056Z,98757.00
2022-10-05T07:25:27.923Z,98764.09
2022-10-05T07:28:16.311Z,98760.63
2022-10-05T07:31:07.791Z,98761.91
2022-10-05T07:33:45.912Z,98762.97
2022-10-05T07:36:54.867Z,98764.56
2022-10-05T07:39:59.005Z,98760.88
2022-10-05T07:42:30.815Z,98762.75
2022-10-05T07:45:30.093Z,98769.66
2022-10-05T07:48:14.014Z,98768.91
2022-10-05T07:51:33.240Z,98768.72
2022-10-05T07:54:57.107Z,98775.47
2022-10-05T07:57:47.506Z,98777.66
2022-10-05T08:00:37.871Z,98772.31
2022-10-05T08:03:19.476Z,98773.38
2022-10-05T08:05:47.271Z,98774.88
2022-10-05T08:08:49.369Z,98776.41
2022-10-05T08:11:26.893Z,98772.75
2022-10-05T08:14:33.811Z,98770.44
2022-10-05T08:17:09.605Z,98773.78
2022-10-05T08:19:48.498Z,98773.91
2022-10-05T08:22:29.858Z,98773.47
2022-10-05T08:25:05.626Z,98769.94
2022-10-05T08:27:46.997Z,98769.44
2022-10-05T08:30:16.652Z,98777.41
2022-10-05T08:33:10.341Z,98786.56
2022-10-05T08:35:45.402Z,98777.91
2022-10-05T08:38:29.131Z,98783.31
2022-10-05T08:41:08.017Z,98770.00
2022-10-05T08:44:26.194Z,98781.31
2022-10-05T08:47:32.037Z,98764.34
2022-10-05T08:50:37.282Z,98767.63
2022-10-05T08:53:27.049Z,98764.94
2022-10-05T08:56:34.232Z,98760.03
2022-10-05T08:59:41.810Z,98759.06
2022-10-05T09:02:47.197Z,98748.94
2022-10-05T09:05:41.747Z,98752.69
2022-10-05T09:09:03.309Z,98752.66
2022-10-05T09:11:46.161Z,98747.59
2022-10-05T09:14:40.866Z,98749.00
2022-10-05T09:17:47.733Z,98739.78
2022-10-05T09:20:52.060Z,98738.78
2022-10-05T09:23:37.238Z,98741.19
2022-10-05T09:26:42.592Z,98740.63
2022-10-05T09:29:57.259Z,98732.03
2022-10-05T09:33:23.577Z,98736.56
2022-10-05T09:36:18.388Z,98728.44
2022-10-05T09:39:44.335Z,98728.84
2022-10-05T09:42:54.960Z,98724.84
2022-10-05T09:45:35.865Z,98714.06
2022-10-05T09:48:43.684Z,98717.72
2022-10-05T09:51:46.077Z,98722.69
2022-10-05T09:54:37.906Z,98716.50
2022-10-05T09:57:56.204Z,98716.41
2022-10-05T10:01:39.680Z,98709.47
2022-10-05T10:04:25.700Z,98704.78
2022-10-05T10:07:21.125Z,98700.97
2022-10-05T10:10:15.730Z,98701.44
2022-10-05T10:13:22.236Z,98698.63
2022-10-05T10:16:07.332Z,98695.13
2022-10-05T10:19:30.618Z,98692.88
2022-10-05T10:23:08.631Z,98694.28
2022-10-05T10:25:43.360Z,98684.56
2022-10-05T10:28:58.189Z,98692.69
2022-10-05T10:31:34.418Z,98691.00
2022-10-05T10:34:41.439Z,98683.97
2022-10-05T10:37:33.615Z,98686.78
2022-10-05T10:40:26.055Z,98683.16
2022-10-05T10:42:56.409Z,98687.84
2022-10-05T10:45:42.823Z,98685.22
2022-10-05T10:48:18.937Z,98675.47
2022-10-05T10:51:19.773Z,98671.34
2022-10-05T10:54:09.575Z,98676.94
2022-10-05T10:57:15.437Z,98672.16
2022-10-05T11:00:06.259Z,98661.53
2022-10-05T11:02:51.391Z,98661.44
2022-10-05T11:06:17.244Z,98651.88
2022-10-05T11:09:23.025Z,98648.66
2022-10-05T11:12:38.411Z,98638.16
2022-10-05T11:15:38.696Z,98642.72
2022-10-05T11:18:21.619Z,98634.19
2022-10-05T11:21:26.085Z,98625.09
2022-10-05T11:24:28.092Z,98633.00
2022-10-05T11:27:25.836Z,98624.88
2022-10-05T11:30:23.047Z,98616.34
2022-10-05T11:33:27.641Z,98616.78
2022-10-05T11:36:35.136Z,98613.44
2022-10-05T11:39:23.409Z,98598.13
2022-10-05T11:42:21.394Z,98598.16
2022-10-05T11:45:26.110Z,98594.34
2022-10-05T11:48:32.904Z,98592.34
2022-10-05T11:51:22.934Z,98602.09
2022-10-05T11:54:17.501Z,98592.69
2022-10-05T11:57:18.931Z,98589.00
2022-10-05T12:00:16.469Z,98594.78
2022-10-05T12:02:49.428Z,98584.69
2022-10-05T12:05:38.484Z,98589.53
2022-10-05T12:08:46.081Z,98581.78
2022-10-05T12:11:38.256Z,98575.06
2022-10-05T12:14:20.753Z,98568.34
2022-10-05T12:17:11.268Z,98572.16
2022-10-05T12:19:48.497Z,98574.75
2022-10-05T12:22:42.144Z,98572.06
2022-10-05T12:25:21.525Z,98566.63
2022-10-05T12:27:57.739Z,98568.72
2022-10-05T12:31:29.006Z,98563.41
2022-10-05T12:34:21.293Z,98571.34
2022-10-05T12:37:07.221Z,98554.47
2022-10-05T12:39:50.460Z,98547.91
2022-10-05T12:42:42.147Z,98558.75
2022-10-05T12:45:56.650Z,98553.91
2022-10-05T12:48:40.036Z,98541.09
2022-10-05T12:51:53.846Z,98541.91
2022-10-05T12:55:06.533Z,98539.47
2022-10-05T12:58:05.523Z,98541.78
2022-10-05T13:00:38.514Z,98543.84
2022-10-05T13:03:33.221Z,98536.06
2022-10-05T13:06:29.400Z,98535.25
2022-10-05T13:09:10.362Z,98537.28
2022-10-05T13:11:52.865Z,98525.88
2022-10-05T13:15:00.497Z,98527.50
2022-10-05T13:18:03.040Z,98523.50
2022-10-05T13:20:49.415Z,98525.56
2022-10-05T13:24:13.776Z,98530.00
2022-10-05T13:27:12.980Z,98520.78
2022-10-05T13:29:56.439Z,98520.56
2022-10-05T13:32:41.484Z,98521.41
2022-10-05T13:35:40.833Z,98510.97
2022-10-05T13:38:57.597Z,98519.81
2022-10-05T13:42:09.599Z,98502.84
2022-10-05T13:44:47.339Z,98514.50
2022-10-05T13:47:44.265Z,98510.03
2022-10-05T13:50:23.637Z,98518.47
2022-10-05T13:52:59.228Z,98510.06
2022-10-05T13:56:15.177Z,98515.41
2022-10-05T13:59:05.454Z,98502.69
2022-10-05T14:02:23.276Z,98499.53
2022-10-05T14:05:23.161Z,98499.09
2022-10-05T14:08:17.316Z,98498.34
2022-10-05T14:10:47.496Z,98492.47
2022-10-05T14:13:44.793Z,98500.06
2022-10-05T14:16:26.258Z,98491.78
2022-10-05T14:19:39.942Z,98491.56
2022-10-05T14:22:24.274Z,98484.09
2022-10-05T14:25:13.748Z,98484.50
2022-10-05T14:27:58.544Z,98484.25
2022-10-05T14:30:28.828Z,98488.88
2022-10-05T14:33:14.426Z,98486.75
2022-10-05T14:35:49.735Z,98488.13
2022-10-05T14:38:29.761Z,98486.00
2022-10-05T14:41:22.132Z,98478.88
2022-10-05T14:44:24.865Z,98485.75
2022-10-05T14:47:15.553Z,98485.31
2022-10-05T14:50:13.505Z,98479.59
2022-10-05T14:52:41.194Z,98484.53
2022-10-05T14:55:30.597Z,98483.28
2022-10-05T14:58:12.627Z,98475.84
2022-10-05T15:00:58.438Z,98482.34
2022-10-05T15:04:13.992Z,98479.75
2022-10-05T15:07:05.901Z,98484.34
2022-10-05T15:09:53.857Z,98486.63
2022-10-05T15:12:35.952Z,98477.22
2022-10-05T15:15:28.538Z,98482.22
2022-10-05T15:18:15.909Z,98486.56
2022-10-05T15:21:09.084Z,98483.59
2022-10-05T15:24:42.670Z,98492.03
2022-10-05T15:27:21.125Z,98493.03
2022-10-05T15:30:04.511Z,98491.00
2022-10-05T15:32:43.481Z,98500.41
2022-10-05T15:35:38.762Z,98500.59
2022-10-05T15:38:11.958Z,98507.16
2022-10-05T15:41:08.485Z,98501.97
2022-10-05T15:43:50.262Z,98502.25
2022-10-05T15:46:23.255Z,98504.19
2022-10-05T15:48:56.064Z,98501.41
2022-10-05T15:52:24.944Z,98503.91
2022-10-05T15:55:22.244Z,98508.50
2022-10-05T15:58:08.364Z,98509.19
2022-10-05T16:00:51.925Z,98515.47
2022-10-05T16:03:51.096Z,98516.78
2022-10-05T16:06:49.158Z,98518.09
2022-10-05T16:09:34.237Z,98518.44
2022-10-05T16:12:48.278Z,98523.53
2022-10-05T16:15:43.156Z,98517.13
2022-10-05T16:18:31.423Z,98530.44
2022-10-05T16:21:22.289Z,98530.41
2022-10-05T16:24:41.346Z,98539.09
2022-10-05T16:27:47.374Z,98532.03
2022-10-05T16:30:18.890Z,98536.66
2022-10-05T16:33:11.873Z,98543.13
2022-10-05T16:36:08.685Z,98546.09
2022-10-05T16:39:01.775Z,98536.66
2022-10-05T16:41:42.706Z,98540.34
2022-10-05T16:44:28.036Z,98535.28
2022-10-05T16:47:27.567Z,98547.16
2022-10-05T16:50:42.243Z,98555.00
2022-10-05T16:53:20.635Z,98557.91
2022-10-05T16:56:03.089Z,98558.00
2022-10-05T16:59:00.784Z,98566.66
2022-10-05T17:02:09.279Z,98566.31
2022-10-05T17:04:58.934Z,98567.56
2022-10-05T17:07:56.811Z,98571.72
2022-10-05T17:10:44.918Z,98574.78
2022-10-05T17:13:24.726Z,98576.81
2022-10-05T17:16:31.403Z,98580.88
2022-10-05T17:19:35.689Z,98581.78
2022-10-05T17:22:37.741Z,98583.66
2022-10-05T17:25:22.319Z,98585.03
2022-10-05T17:28:16.226Z,98591.78
2022-10-05T17:31:21.888Z,98599.41
2022-10-05T17:34:24.850Z,98607.53
2022-10-05T17:37:00.560Z,98605.50
2022-10-05T17:39:50.667Z,98600.75
2022-10-05T17:42:45.411Z,98610.75
2022-10-05T17:45:12.312Z,98608.03
2022-10-05T17:48:07.952Z,98604.03
2022-10-05T17:51:07.168Z,98604.84
2022-10-05T17:54:06.113Z,98614.72
2022-10-05T17:56:58.819Z,98607.81
2022-10-05T17:59:56.767Z,98616.94
2022-10-05T18:02:36.329Z,98613.56
2022-10-05T18:05:14.492Z,98622.41
2022-10-05T18:07:48.073Z,98612.47
2022-10-05T18:10:29.566Z,98618.09
2022-10-05T18:12:59.422Z,98622.50
2022-10-05T18:15:26.272Z,98630.56
2022-10-05T18:18:32.853Z,98634.25
2022-10-05T18:21:15.493Z,98629.00
2022-10-05T18:23:52.905Z,98628.66
2022-10-05T18:26:47.612Z,98638.72
2022-10-05T18:29:59.074Z,98642.28
2022-10-05T18:32:31.661Z,98648.22
2022-10-05T18:35:19.183Z,98654.34
2022-10-05T18:38:35.844Z,98657.56
2022-10-05T18:41:29.019Z,98649.47
2022-10-05T18:44:04.042Z,98651.72
2022-10-05T18:46:47.087Z,98649.44
2022-10-05T18:49:38.693Z,98656.47
2022-10-05T18:52:26.279Z,98663.50
2022-10-05T18:55:33.549Z,98664.81
2022-10-05T18:58:25.987Z,98658.47
2022-10-05T19:01:22.078Z,98667.66
2022-10-05T19:04:33.233Z,98673.41
2022-10-05T19:07:21.396Z,98667.28
2022-10-05T19:10:28.604Z,98669.38
2022-10-05T19:13:44.073Z,98680.53
2022-10-05T19:17:05.343Z,98677.81
2022-10-05T19:19:50.476Z,98687.22
2022-10-05T19:22:43.718Z,98693.91
2022-10-05T19:25:48.395Z,98702.91
2022-10-05T19:28:21.318Z,98712.94
2022-10-05T19:31:11.948Z,98717.56
2022-10-05T19:34:16.475Z,98725.41
2022-10-05T19:36:59.143Z,98724.16
2022-10-05T19:39:45.698Z,98736.19
2022-10-05T19:42:55.409Z,98733.56
2022-10-05T19:45:24.634Z,98738.13
2022-10-05T19:48:13.796Z,98743.06
2022-10-05T19:50:55.219Z,98747.66
2022-10-05T19:53:37.034Z,98744.75
2022-10-05T19:56:26.134Z,98755.78
2022-10-05T19:58:59.300Z,98761.91
2022-10-05T20:01:34.053Z,98759.25
2022-10-05T20:04:01.349Z,98777.84
2022-10-05T20:06:29.480Z,98774.84
2022-10-05T20:09:00.436Z,98768.34
2022-10-05T20:11:29.089Z,98776.34
2022-10-05T20:14:01.905Z,98772.94
2022-10-05T20:16:50.526Z,98784.97
2022-10-05T20:19:54.121Z,98780.47
2022-10-05T20:22:46.476Z,98786.72
2022-10-05T20:25:19.530Z,98792.00
2022-10-05T20:27:50.623Z,98797.56
2022-10-05T20:30:24.086Z,98800.38
2022-10-05T20:32:53.798Z,98812.19
2022-10-05T20:35:25.366Z,98807.91
2022-10-05T20:38:01.705Z,98810.13
2022-10-05T20:40:31.578Z,98816.03
2022-10-05T20:42:58.980Z,98815.00
2022-10-05T20:45:26.077Z,98829.19
2022-10-05T20:47:53.052Z,98824.53
2022-10-05T20:50:21.076Z,98828.88
2022-10-05T20:52:48.198Z,98835.38
2022-10-05T20:55:15.175Z,98834.59
2022-10-05T20:57:42.467Z,98843.06
2022-10-05T21:00:13.736Z,98840.09
2022-10-05T21:02:40.786Z,98841.91
2022-10-05T21:05:08.471Z,98847.25
2022-10-05T21:07:35.626Z,98847.28
2022-10-05T21:10:04.576Z,98855.81
2022-10-05T21:12:33.945Z,98853.88
2022-10-05T21:15:01.469Z,98866.31
2022-10-05T21:17:28.488Z,98846.72
2022-10-05T21:19:55.437Z,98851.78
2022-10-05T21:22:23.416Z,98857.03
2022-10-05T21:24:50.436Z,98860.19
2022-10-05T21:27:17.516Z,98870.13
2022-10-05T21:29:45.325Z,98869.94
2022-10-05T21:32:12.502Z,98877.06
2022-10-05T21:34:41.349Z,98877.19
2022-10-05T21:37:08.663Z,98884.28
2022-10-05T21:39:36.652Z,98878.44
2022-10-05T21:42:04.090Z,98892.47
2022-10-05T21:44:31.188Z,98892.94
2022-10-05T21:46:58.232Z,98896.78
2022-10-05T21:49:26.431Z,98893.00
2022-10-05T21:51:54.136Z,98895.97
2022-10-05T21:54:23.612Z,98898.31
2022-10-05T21:56:54.479Z,98897.91
2022-10-05T21:59:26.451Z,98909.38
2022-10-05T22:01:54.033Z,98907.97
2022-10-05T22:04:20.990Z,98905.31
2022-10-05T22:06:49.234Z,98904.94
2022-10-05T22:09:16.273Z,98908.72
2022-10-05T22:11:47.815Z,98902.44
2022-10-05T22:14:15.835Z,98912.53
2022-10-05T22:16:44.761Z,98909.97
2022-10-05T22:19:17.095Z,98906.75
2022-10-05T22:21:44.120Z,98910.59
2022-10-05T22:24:11.670Z,98919.25
2022-10-05T22:26:41.401Z,98917.47
2022-10-05T22:29:09.602Z,98919.47
2022-10-05T22:31:37.239Z,98924.75
2022-10-05T22:35:31.605Z,98925.53
2022-10-05T22:37:59.779Z,98929.41
2022-10-05T22:40:26.778Z,98934.78
2022-10-05T22:42:53.867Z,98926.13
2022-10-05T22:45:20.844Z,98928.47
2022-10-05T22:47:48.066Z,98932.84
2022-10-05T22:50:15.289Z,98929.94
2022-10-05T22:52:45.384Z,98931.03
2022-10-05T22:55:12.333Z,98937.66
2022-10-05T22:57:40.621Z,98934.13
2022-10-05T23:00:10.174Z,98936.59
2022-10-05T23:02:42.822Z,98937.28
2022-10-05T23:05:13.222Z,98937.28
2022-10-05T23:07:43.279Z,98945.50
2022-10-05T23:10:14.718Z,98927.94
2022-10-05T23:12:42.298Z,98938.63
2022-10-05T23:15:10.255Z,98940.91
2022-10-05T23:17:39.248Z,98938.34
2022-10-05T23:20:08.031Z,98943.38
2022-10-05T23:22:38.930Z,98943.22
2022-10-05T23:25:07.506Z,98946.88
2022-10-05T23:27:39.778Z,98946.84
2022-10-05T23:30:09.438Z,98949.63
2022-10-05T23:32:41.655Z,98953.44
2022-10-05T23:35:11.211Z,98952.13
2022-10-05T23:37:41.371Z,98962.16
2022-10-05T23:40:14.214Z,98951.50
2022-10-05T23:42:42.035Z,98954.09
2022-10-05T23:45:11.387Z,98955.28
2022-10-05T23:47:39.582Z,98960.59
2022-10-05T23:50:08.150Z,98961.22
2022-10-05T23:52:36.163Z,98961.78
2022-10-05T23:55:05.479Z,98960.81
2022-10-05T23:57:32.772Z,98970.63
